createdAt,value
2018-12-25T00:02:00.263Z,4.75
2018-12-25T00:07:06.405Z,4.47
2018-12-25T00:12:12.506Z,3.60
2018-12-25T00:17:18.679Z,3.27
2018-12-25T00:22:24.817Z,3.00
2018-12-25T00:27:30.902Z,2.72
2018-12-25T00:32:37.290Z,2.40
2018-12-25T00:37:43.544Z,2.20
2018-12-25T00:42:49.891Z,2.40
2018-12-25T00:47:56.037Z,2.17
2018-12-25T00:53:02.338Z,2.10
2018-12-25T00:58:08.495Z,1.87
2018-12-25T01:03:14.630Z,1.77
2018-12-25T01:08:20.736Z,1.90
2018-12-25T01:13:26.914Z,1.70
2018-12-25T01:18:33.059Z,1.47
2018-12-25T01:23:39.167Z,1.40
2018-12-25T01:28:45.405Z,1.50
2018-12-25T01:33:51.434Z,1.35
2018-12-25T01:38:57.538Z,1.20
2018-12-25T01:44:03.798Z,1.17
2018-12-25T01:49:09.994Z,1.20
2018-12-25T01:54:16.241Z,0.93
2018-12-25T01:59:22.424Z,1.00
2018-12-25T02:04:28.585Z,1.00
2018-12-25T02:09:34.808Z,0.90
2018-12-25T02:14:41.078Z,0.72
2018-12-25T02:19:47.234Z,0.90
2018-12-25T02:24:53.626Z,0.90
2018-12-25T02:29:59.778Z,0.68
2018-12-25T02:35:05.919Z,0.80
2018-12-25T02:40:12.027Z,1.05
2018-12-25T02:45:18.130Z,0.72
2018-12-25T02:50:24.290Z,0.57
2018-12-25T02:55:30.730Z,0.60
2018-12-25T03:00:36.788Z,0.65
2018-12-25T03:05:42.900Z,0.50
2018-12-25T03:10:49.062Z,0.55
2018-12-25T03:15:55.323Z,0.60
2018-12-25T03:21:01.698Z,0.60
2018-12-25T03:26:07.772Z,0.60
2018-12-25T03:31:13.996Z,0.60
2018-12-25T03:36:20.445Z,0.60
2018-12-25T03:41:26.537Z,0.80
2018-12-25T03:46:32.728Z,0.47
2018-12-25T03:51:38.963Z,0.60
2018-12-25T03:56:45.202Z,0.80
2018-12-25T04:01:51.351Z,0.80
2018-12-25T04:06:57.487Z,1.12
2018-12-25T04:12:03.661Z,0.80
2018-12-25T04:17:10.090Z,1.07
2018-12-25T04:22:16.286Z,0.88
2018-12-25T04:27:22.398Z,1.00
2018-12-25T04:32:28.435Z,0.88
2018-12-25T04:37:35.497Z,0.90
2018-12-25T04:42:41.579Z,1.00
2018-12-25T04:47:47.647Z,0.90
2018-12-25T04:52:53.728Z,0.90
2018-12-25T04:57:59.829Z,0.80
2018-12-25T05:03:05.939Z,1.00
2018-12-25T05:08:12.105Z,0.93
2018-12-25T05:13:18.246Z,1.07
2018-12-25T05:18:24.460Z,1.40
2018-12-25T05:23:30.583Z,1.40
2018-12-25T05:28:36.697Z,1.20
2018-12-25T05:33:42.739Z,1.32
2018-12-25T05:38:48.940Z,1.50
2018-12-25T05:43:55.122Z,1.30
2018-12-25T05:49:01.575Z,1.60
2018-12-25T05:54:07.810Z,1.42
2018-12-25T05:59:13.956Z,1.72
2018-12-25T06:04:19.970Z,1.32
2018-12-25T06:09:26.126Z,1.52
2018-12-25T06:14:32.311Z,1.40
2018-12-25T06:19:38.517Z,1.60
2018-12-25T06:24:44.608Z,1.50
2018-12-25T06:29:50.974Z,1.50
2018-12-25T06:34:57.115Z,1.50
2018-12-25T06:40:03.290Z,1.57
2018-12-25T06:45:09.335Z,1.20
2018-12-25T06:50:16.399Z,1.47
2018-12-25T06:55:22.726Z,1.50
2018-12-25T07:00:28.834Z,1.70
2018-12-25T07:05:35.383Z,1.42
2018-12-25T07:10:41.517Z,1.60
2018-12-25T07:15:47.654Z,1.67
2018-12-25T07:20:53.854Z,1.90
2018-12-25T07:25:59.995Z,1.87
2018-12-25T07:31:06.214Z,1.95
2018-12-25T07:36:12.374Z,1.85
2018-12-25T07:41:18.442Z,2.00
2018-12-25T07:46:26.293Z,2.02
2018-12-25T07:51:32.722Z,2.08
2018-12-25T07:56:38.867Z,2.10
2018-12-25T08:01:45.085Z,1.98
2018-12-25T08:06:51.294Z,2.60
2018-12-25T08:11:57.350Z,2.40
2018-12-25T08:17:03.516Z,2.70
2018-12-25T08:22:09.687Z,2.60
2018-12-25T08:27:16.166Z,2.67
2018-12-25T08:32:22.280Z,2.50
2018-12-25T08:37:28.802Z,2.70
2018-12-25T08:42:35.035Z,2.90
2018-12-25T08:47:41.522Z,2.60
2018-12-25T08:52:47.698Z,2.90
2018-12-25T08:57:54.965Z,3.00
2018-12-25T09:03:01.152Z,2.80
2018-12-25T09:08:07.744Z,2.67
2018-12-25T09:13:14.026Z,2.92
2018-12-25T09:18:20.408Z,2.95
2018-12-25T09:23:26.597Z,3.00
2018-12-25T09:28:32.835Z,5.60
2018-12-25T09:33:39.131Z,13.48
2018-12-25T09:38:45.314Z,8.63
2018-12-25T09:43:51.836Z,6.28
2018-12-25T09:48:58.042Z,8.80
2018-12-25T09:54:05.173Z,8.58
2018-12-25T09:59:11.587Z,7.50
2018-12-25T10:04:17.864Z,10.65
2018-12-25T10:09:24.251Z,7.62
2018-12-25T10:14:30.648Z,8.85
2018-12-25T10:19:36.836Z,8.43
2018-12-25T10:24:42.959Z,7.58
2018-12-25T10:29:49.075Z,7.45
2018-12-25T10:34:55.119Z,6.33
2018-12-25T10:40:01.274Z,6.42
2018-12-25T10:45:07.898Z,6.30
2018-12-25T10:50:14.389Z,5.53
2018-12-25T10:55:20.651Z,5.35
2018-12-25T11:00:30.027Z,5.08
2018-12-25T11:05:36.099Z,8.95
2018-12-25T11:10:42.258Z,7.83
2018-12-25T11:15:48.664Z,7.42
2018-12-25T11:20:54.731Z,7.10
2018-12-25T11:26:01.134Z,6.95
2018-12-25T11:31:07.327Z,6.33
2018-12-25T11:36:13.436Z,5.85
2018-12-25T11:41:19.939Z,5.90
2018-12-25T11:46:26.054Z,5.87
2018-12-25T11:51:32.070Z,4.92
2018-12-25T11:56:38.257Z,4.67
2018-12-25T12:01:44.505Z,4.53
2018-12-25T12:06:50.597Z,4.80
2018-12-25T12:11:56.890Z,4.53
2018-12-25T12:17:03.392Z,4.22
2018-12-25T12:22:09.635Z,4.25
2018-12-25T12:27:15.777Z,4.08
2018-12-25T12:32:22.230Z,3.80
2018-12-25T12:37:28.370Z,4.12
2018-12-25T12:42:34.511Z,3.90
2018-12-25T12:47:40.971Z,4.03
2018-12-25T12:52:47.109Z,3.72
2018-12-25T12:57:53.360Z,3.70
2018-12-25T13:02:59.814Z,3.83
2018-12-25T13:08:08.839Z,3.75
2018-12-25T13:13:14.936Z,3.40
2018-12-25T13:18:21.132Z,3.65
2018-12-25T13:23:27.367Z,3.30
2018-12-25T13:28:33.519Z,2.95
2018-12-25T13:33:39.685Z,3.02
2018-12-25T13:38:45.901Z,3.30
2018-12-25T13:43:52.173Z,3.12
2018-12-25T13:48:58.338Z,3.33
2018-12-25T13:54:04.547Z,3.55
2018-12-25T13:59:22.383Z,3.30
2018-12-25T14:04:28.541Z,3.90
2018-12-25T14:09:34.718Z,3.52
2018-12-25T14:14:40.970Z,4.15
2018-12-25T14:19:48.198Z,3.80
2018-12-25T14:24:54.322Z,4.00
2018-12-25T14:30:00.558Z,3.70
2018-12-25T14:35:06.733Z,3.72
2018-12-25T14:40:13.576Z,3.75
2018-12-25T14:45:19.782Z,4.15
2018-12-25T14:50:25.904Z,4.17
2018-12-25T14:55:32.188Z,4.08
2018-12-25T15:00:38.482Z,4.58
2018-12-25T15:05:44.671Z,4.03
2018-12-25T15:10:50.776Z,4.20
2018-12-25T15:15:57.967Z,4.37
2018-12-25T15:21:04.136Z,3.95
2018-12-25T15:26:10.246Z,3.85
2018-12-25T15:31:16.689Z,3.87
2018-12-25T15:36:22.798Z,3.85
2018-12-25T15:41:28.953Z,4.60
2018-12-25T15:46:35.182Z,4.10
2018-12-25T15:51:41.475Z,4.25
2018-12-25T15:56:47.667Z,4.30
2018-12-25T16:01:53.781Z,3.83
2018-12-25T16:06:59.846Z,4.28
2018-12-25T16:12:06.067Z,4.20
2018-12-25T16:17:12.265Z,4.25
2018-12-25T16:22:18.633Z,4.22
2018-12-25T16:27:24.819Z,4.05
2018-12-25T16:32:31.018Z,4.20
2018-12-25T16:37:37.213Z,4.65
2018-12-25T16:42:43.412Z,5.45
2018-12-25T16:47:49.531Z,5.40
2018-12-25T16:52:55.792Z,5.30
2018-12-25T16:58:01.985Z,5.03
2018-12-25T17:03:08.223Z,4.95
2018-12-25T17:08:14.194Z,4.90
2018-12-25T17:13:20.419Z,5.47
2018-12-25T17:18:26.659Z,13.85
2018-12-25T17:23:33.037Z,31.60
2018-12-25T17:28:39.251Z,28.25
2018-12-25T17:33:45.586Z,33.83
2018-12-25T17:38:51.761Z,33.02
2018-12-25T17:43:58.115Z,34.90
2018-12-25T17:49:04.768Z,44.45
2018-12-25T17:54:11.157Z,47.10
2018-12-25T17:59:17.451Z,38.65
2018-12-25T18:04:23.666Z,32.95
2018-12-25T18:09:29.939Z,27.20
2018-12-25T18:14:36.250Z,25.05
2018-12-25T18:19:42.759Z,21.97
2018-12-25T18:24:49.095Z,19.15
2018-12-25T18:29:55.335Z,16.42
2018-12-25T18:35:01.501Z,15.80
2018-12-25T18:40:07.787Z,14.23
2018-12-25T18:45:14.552Z,14.38
2018-12-25T18:50:20.731Z,16.30
2018-12-25T18:55:27.292Z,12.65
2018-12-25T19:00:33.554Z,11.78
2018-12-25T19:05:39.924Z,10.60
2018-12-25T19:10:46.545Z,10.18
2018-12-25T19:15:56.770Z,8.98
2018-12-25T19:21:02.873Z,8.80
2018-12-25T19:26:09.048Z,8.70
2018-12-25T19:31:15.373Z,8.00
2018-12-25T19:36:21.707Z,7.83
2018-12-25T19:41:28.069Z,7.10
2018-12-25T19:46:34.242Z,7.15
2018-12-25T19:51:40.547Z,6.67
2018-12-25T19:56:46.781Z,6.05
2018-12-25T20:01:53.104Z,5.70
2018-12-25T20:07:53.844Z,6.35
2018-12-25T20:13:24.004Z,5.87
2018-12-25T20:18:47.419Z,6.05
2018-12-25T20:24:24.773Z,6.20
2018-12-25T20:30:02.205Z,5.85
2018-12-25T20:35:45.238Z,5.83
2018-12-25T20:42:06.086Z,5.70
2018-12-25T20:47:57.957Z,5.10
2018-12-25T20:53:22.424Z,6.67
2018-12-25T20:58:52.342Z,6.28
2018-12-25T21:04:50.436Z,7.33
2018-12-25T21:10:32.713Z,7.75
2018-12-25T21:16:19.813Z,7.15
2018-12-25T21:22:12.491Z,7.30
2018-12-25T21:27:29.266Z,6.53
2018-12-25T21:32:40.586Z,6.30
2018-12-25T21:37:47.502Z,6.12
2018-12-25T21:42:54.233Z,6.15
2018-12-25T21:48:00.993Z,5.85
2018-12-25T21:53:07.253Z,6.20
2018-12-25T21:58:13.758Z,5.95
2018-12-25T22:03:19.945Z,5.83
2018-12-25T22:08:26.090Z,5.60
2018-12-25T22:13:32.217Z,5.92
2018-12-25T22:18:38.451Z,6.17
2018-12-25T22:23:44.804Z,5.80
2018-12-25T22:28:51.173Z,5.97
2018-12-25T22:33:57.339Z,6.00
2018-12-25T22:39:04.837Z,6.37
2018-12-25T22:44:11.071Z,5.75
2018-12-25T22:49:17.378Z,5.70
2018-12-25T22:54:23.573Z,5.67
2018-12-25T22:59:29.942Z,5.42
2018-12-25T23:04:36.059Z,6.55
2018-12-25T23:09:42.305Z,6.92
2018-12-25T23:14:48.648Z,11.25
2018-12-25T23:19:54.991Z,10.28
2018-12-25T23:25:01.555Z,10.03
2018-12-25T23:30:07.844Z,10.40
2018-12-25T23:35:14.055Z,9.10
2018-12-25T23:40:20.227Z,9.30
2018-12-25T23:45:26.473Z,8.35
2018-12-25T23:50:32.615Z,8.53
2018-12-25T23:55:38.813Z,8.03
